Briefing drone pour Bourg-achard

Rechercher une autre localisation

Conditions de vol :


Nous sommes le : Samedi 16 octobre 2021
Il est 13:01 UTC (15:01 LT)

Lever de soleil : 05:53 UTC (07:53 LT)
Coucher de soleil : 17:31 UTC (19:31 LT)

Météo

L'essentiel des conditions de vol

VIGILANCE MÉTÉO FRANCE - Eure (27)
Pas de vigilances particulieres
METAR de LFOP
LFOP 161230Z AUTO 14007KT CAVOK 17/10 Q1021 NOSIG

Date d'émission: 16/10/2021
Heure d'émission: 12:30 UTC
Vent: 140° pour 7 KT (13 km/h)
Visibilité horizontale: > 10 km
Plafond : Plafond et visibilité OK (CAVOK)
Température: 17 °C
Point de rosée: 10 °C
Humidité: 63%
Pression (QNH): 1021 hPa
Conditions: Pas de changement dans les 2 heures (NOSIG)
TAF de LFOP
LFOP 161100Z 1612/1712 14007KT 9999 SCT045

Conditions prévues :

Heure d'émission : Bulletin éffectué le 16 à 12:00 UTC
Prévision : Valide du 16 a 12:00 UTC au 17 a 12:00 UTC
Vent : 140° pour 7 KT (13 km/h)
Visibilité : > 10 km
Nuages : Nuages eparts à 4500ft (1372 m)
WEBCAM POUR BOURG-ACHARD

Réglementation

Voler en sécurité

CARTES AERONAUTIQUE 1/500.000
CARTES VAC (LFOP)
SUP AIP




Chargement des AIP...
NOTAM (BOURG-ACHARD + Terrain à proximité / FIR )




Chargement des NOTAMS...
CONTACT PREFECTURE 27


Avertissement : Les données mises à disposition sont indicatives. Oxygène Drone ne pourra être tenu responsable de dégâts causés aux biens et aux personnes.